• Join FlightAware (Why Join?)
  • Login
  • US Flag 
10:58AM EDT


 

Airport Tracker/Info


-or-


 

Live Flight TrackerFlight Track Log ✈ TAM3049 ✈ 10-Sep-2013 ✈ SBSP / CGH - SBPA / POA

Flight Track Log - Related Links

Times and Time Zones

All times are in EDT time to prevent confusion due to time zone crossing. See the TAM3049 flight status page for this flight to view local times or setup timezone preferences in your user account.

Time Position Orientation Groundspeed Altitude Reporting Facility
EDT Latitude Longitude Course Direction KTS MPH feet Rate Location/Type
09:53PM -26.2441 -48.4389 211° Southwest  Level Estimated
09:54PM -26.3340 -48.5018 212° Southwest  Level Estimated
09:55PM -26.4238 -48.5647 212° Southwest  Level Estimated
09:56PM -26.5137 -48.6278 212° Southwest  Level Estimated
09:57PM -26.6034 -48.6910 212° Southwest  Level Estimated
09:58PM -26.6932 -48.7543 212° Southwest  Level Estimated
09:59PM -26.7829 -48.8177 212° Southwest  Level Estimated
10:00PM -26.8726 -48.8811 212° Southwest  Level Estimated
10:01PM -26.9623 -48.9447 212° Southwest  Level Estimated
10:02PM -27.0519 -49.0084 212° Southwest  Level Estimated
10:03PM -27.1415 -49.0722 212° Southwest  Level Estimated
10:04PM -27.2311 -49.1361 212° Southwest  Level Estimated
10:05PM -27.3207 -49.2001 212° Southwest  Level Estimated
10:06PM -27.4102 -49.2642 212° Southwest  Level Estimated
10:07PM -27.4997 -49.3284 212° Southwest  Level Estimated
10:08PM -27.5892 -49.3927 212° Southwest  Level Estimated
10:09PM -27.6786 -49.4571 213° Southwest  Level Estimated
10:10PM -27.7680 -49.5216 213° Southwest  Level Estimated
10:11PM -27.8574 -49.5862 213° Southwest  Level Estimated
10:12PM -27.9468 -49.6510 213° Southwest  Level Estimated
10:13PM -28.0361 -49.7158 213° Southwest  Level Estimated
10:14PM -28.1254 -49.7807 213° Southwest  Level Estimated
10:15PM -28.2146 -49.8458 213° Southwest  Level Estimated
10:16PM -28.3039 -49.9109 213° Southwest  Level Estimated
10:17PM -28.3931 -49.9762 213° Southwest  Level Estimated
10:18PM -28.4822 -50.0416 213° Southwest  Level Estimated
10:19PM -28.5714 -50.1071 213° Southwest  Level Estimated
10:20PM -28.6604 -50.1727 213° Southwest  Level Estimated
10:21PM -28.7495 -50.2384 213° Southwest  Level Estimated
10:22PM -28.8386 -50.3042 213° Southwest  Level Estimated
10:23PM -28.9276 -50.3701 213° Southwest  Level Estimated
10:24PM -29.0165 -50.4362 213° Southwest  Level Estimated
10:25PM -29.1055 -50.5023 213° Southwest  Level Estimated
10:26PM -29.1944 -50.5686 213° Southwest  Level Estimated
10:27PM -29.2833 -50.6350 213° Southwest  Level Estimated
10:28PM -29.3721 -50.7015 213° Southwest  Level Estimated
10:29PM -29.4609 -50.7682 213° Southwest  Level Estimated
10:30PM -29.5497 -50.8349 213° Southwest  Level Estimated
10:31PM -29.6384 -50.9018 213° Southwest  Level Estimated
10:32PM -29.7271 -50.9687 213° Southwest  Level Estimated
10:33PM -29.8158 -51.0358 213° Southwest  Level Estimated
10:34PM -29.9044 -51.1031 213° Southwest  Level Estimated
10:35PM -29.9931 -51.1704 213° Southwest  Level Estimated
10:36PM -29.9944 -51.1714 213° Southwest  Level Estimated
10:37PM -29.9944 -51.1714 41° Northeast  Level Estimated
10:38PM -29.9944 -51.1714 41° Northeast  Level Estimated
10:39PM -29.9944 -51.1714 41° Northeast  Level Estimated
10:40PM -29.9944 -51.1714 41° Northeast  Level Estimated
10:41PM -29.9944 -51.1714 41° Northeast  Level Estimated
10:42PM -29.9944 -51.1714 41° Northeast  Level Estimated
10:43PM -29.9944 -51.1714 41° Northeast  Level Estimated
10:44PM -29.9944 -51.1714 41° Northeast  Level Estimated
10:45PM -29.9944 -51.1714 41° Northeast  Level Estimated
10:46PM -29.9944 -51.1714 41° Northeast  Level Estimated
10:47PM -29.9944 -51.1714 41° Northeast  Level Estimated
10:48PM -29.9944 -51.1714 41° Northeast  Level Estimated
10:49PM -29.9944 -51.1714 41° Northeast  Level Estimated
10:50PM -29.9944 -51.1714 41° Northeast  Level Estimated
10:51PM -29.9944 -51.1714 41° Northeast  Level Estimated